createdAt,value
2022-10-09T00:01:17.369Z,3.97
2022-10-09T00:03:46.550Z,3.33
2022-10-09T00:06:16.391Z,3.80
2022-10-09T00:08:43.831Z,4.20
2022-10-09T00:11:15.277Z,4.20
2022-10-09T00:13:42.627Z,4.03
2022-10-09T00:16:12.153Z,3.93
2022-10-09T00:18:39.775Z,3.80
2022-10-09T00:21:19.475Z,3.90
2022-10-09T00:23:49.287Z,4.77
2022-10-09T00:26:16.644Z,4.00
2022-10-09T00:28:47.112Z,5.20
2022-10-09T00:31:14.727Z,4.60
2022-10-09T00:33:42.281Z,3.73
2022-10-09T00:36:12.932Z,4.27
2022-10-09T00:38:40.036Z,4.47
2022-10-09T00:41:07.429Z,4.63
2022-10-09T00:43:41.832Z,4.33
2022-10-09T00:46:34.631Z,4.30
2022-10-09T00:51:37.592Z,4.27
2022-10-09T00:54:07.534Z,4.37
2022-10-09T00:56:35.724Z,4.93
2022-10-09T00:59:04.409Z,4.53
2022-10-09T01:01:31.603Z,6.13
2022-10-09T01:03:59.579Z,5.90
2022-10-09T01:06:51.539Z,5.53
2022-10-09T01:09:37.234Z,5.10
2022-10-09T01:12:27.781Z,5.10
2022-10-09T01:15:04.473Z,5.40
2022-10-09T01:18:07.725Z,5.87
2022-10-09T01:20:47.148Z,5.60
2022-10-09T01:23:47.734Z,5.47
2022-10-09T01:26:15.357Z,6.43
2022-10-09T01:28:53.056Z,6.37
2022-10-09T01:31:23.060Z,5.50
2022-10-09T01:33:51.053Z,6.70
2022-10-09T01:36:19.036Z,6.67
2022-10-09T01:38:46.967Z,6.37
2022-10-09T01:41:13.941Z,6.50
2022-10-09T01:43:41.598Z,6.83
2022-10-09T01:46:30.566Z,7.70
2022-10-09T01:49:37.868Z,7.37
2022-10-09T01:52:33.463Z,7.43
2022-10-09T01:55:30.546Z,6.20
2022-10-09T01:58:20.597Z,7.30
2022-10-09T02:00:56.828Z,7.13
2022-10-09T02:03:25.904Z,7.87
2022-10-09T02:05:54.514Z,7.07
2022-10-09T02:08:23.809Z,7.93
2022-10-09T02:10:55.217Z,7.80
2022-10-09T02:13:23.129Z,7.33
2022-10-09T02:16:18.267Z,8.53
2022-10-09T02:18:49.458Z,8.13
2022-10-09T02:21:42.964Z,7.80
2022-10-09T02:24:17.908Z,7.37
2022-10-09T02:26:47.103Z,7.87
2022-10-09T02:29:15.502Z,8.67
2022-10-09T02:31:44.319Z,8.17
2022-10-09T02:34:19.662Z,8.20
2022-10-09T02:36:47.828Z,7.67
2022-10-09T02:39:15.057Z,7.60
2022-10-09T02:41:42.329Z,8.07
2022-10-09T02:44:11.401Z,7.63
2022-10-09T02:46:38.738Z,7.93
2022-10-09T02:49:06.683Z,8.10
2022-10-09T02:51:33.883Z,8.50
2022-10-09T02:54:01.798Z,8.00
2022-10-09T02:56:30.362Z,8.27
2022-10-09T02:58:57.913Z,8.93
2022-10-09T03:01:25.230Z,7.80
2022-10-09T03:03:54.557Z,7.70
2022-10-09T03:06:24.909Z,7.33
2022-10-09T03:08:53.392Z,6.77
2022-10-09T03:11:22.182Z,7.53
2022-10-09T03:13:49.425Z,7.53
2022-10-09T03:16:21.951Z,8.23
2022-10-09T03:18:50.247Z,8.10
2022-10-09T03:21:20.161Z,7.07
2022-10-09T03:23:47.769Z,6.53
2022-10-09T03:26:17.392Z,7.17
2022-10-09T03:28:47.956Z,7.57
2022-10-09T03:31:39.281Z,7.97
2022-10-09T03:34:03.799Z,8.27
2022-10-09T03:36:31.821Z,8.53
2022-10-09T03:38:58.718Z,7.03
2022-10-09T03:41:25.826Z,8.47
2022-10-09T03:43:52.970Z,7.47
2022-10-09T03:46:19.924Z,6.40
2022-10-09T03:48:46.973Z,6.57
2022-10-09T03:51:13.860Z,6.50
2022-10-09T03:53:41.058Z,7.00
2022-10-09T03:56:08.189Z,6.43
2022-10-09T03:58:35.258Z,7.23
2022-10-09T04:01:02.366Z,6.57
2022-10-09T04:03:29.253Z,6.50
2022-10-09T04:05:56.130Z,7.00
2022-10-09T04:08:24.131Z,6.60
2022-10-09T04:10:57.871Z,6.13
2022-10-09T04:13:24.808Z,6.43
2022-10-09T04:15:52.625Z,5.73
2022-10-09T04:18:19.721Z,5.90
2022-10-09T04:20:54.557Z,6.53
2022-10-09T04:23:24.135Z,5.93
2022-10-09T04:25:59.606Z,6.53
2022-10-09T04:28:31.293Z,6.10
2022-10-09T04:30:59.425Z,6.83
2022-10-09T04:33:27.065Z,5.90
2022-10-09T04:35:55.557Z,7.17
2022-10-09T04:38:23.605Z,6.90
2022-10-09T04:41:02.779Z,6.80
2022-10-09T04:43:30.482Z,6.67
2022-10-09T04:45:57.604Z,7.03
2022-10-09T04:48:25.292Z,7.67
2022-10-09T04:50:52.158Z,7.17
2022-10-09T04:53:19.124Z,6.60
2022-10-09T04:55:46.394Z,6.77
2022-10-09T04:58:14.400Z,7.90
2022-10-09T05:00:43.590Z,7.33
2022-10-09T05:03:11.432Z,8.13
2022-10-09T05:05:38.653Z,8.03
2022-10-09T05:08:06.912Z,8.63
2022-10-09T05:10:34.938Z,7.50
2022-10-09T05:13:04.322Z,7.90
2022-10-09T05:15:32.012Z,8.53
2022-10-09T05:18:02.188Z,8.03
2022-10-09T05:20:29.717Z,8.97
2022-10-09T05:22:57.002Z,6.83
2022-10-09T05:25:24.126Z,8.37
2022-10-09T05:27:53.312Z,8.37
2022-10-09T05:30:20.484Z,9.07
2022-10-09T05:32:48.764Z,8.93
2022-10-09T05:35:15.927Z,6.60
2022-10-09T05:37:45.758Z,7.70
2022-10-09T05:40:13.723Z,6.80
2022-10-09T05:42:40.872Z,8.47
2022-10-09T05:45:08.640Z,9.77
2022-10-09T05:47:35.850Z,8.73
2022-10-09T05:50:07.346Z,8.23
2022-10-09T05:52:35.885Z,9.07
2022-10-09T05:55:02.839Z,9.63
2022-10-09T05:57:33.033Z,10.07
2022-10-09T06:00:01.138Z,9.10
2022-10-09T06:02:28.361Z,8.73
2022-10-09T06:04:55.379Z,9.70
2022-10-09T06:07:22.513Z,9.40
2022-10-09T06:09:50.594Z,9.27
2022-10-09T06:12:17.745Z,8.90
2022-10-09T06:14:51.954Z,9.20
2022-10-09T06:17:20.054Z,8.53
2022-10-09T06:19:47.167Z,8.27
2022-10-09T06:22:17.105Z,7.10
2022-10-09T06:24:45.180Z,7.50
2022-10-09T06:27:13.846Z,7.13
2022-10-09T06:29:40.899Z,4.83
2022-10-09T06:32:07.738Z,3.90
2022-10-09T06:34:35.826Z,5.03
2022-10-09T06:37:03.062Z,5.30
2022-10-09T06:39:30.140Z,4.33
2022-10-09T06:41:57.272Z,6.80
2022-10-09T06:44:24.457Z,5.47
2022-10-09T06:46:52.953Z,5.90
2022-10-09T06:49:20.027Z,6.57
2022-10-09T06:51:47.081Z,6.43
2022-10-09T06:54:16.346Z,6.80
2022-10-09T06:56:43.270Z,6.83
2022-10-09T06:59:11.192Z,5.97
2022-10-09T07:01:38.109Z,7.10
2022-10-09T07:04:09.196Z,6.40
2022-10-09T07:06:42.226Z,6.43
2022-10-09T07:09:12.350Z,7.40
2022-10-09T07:11:43.372Z,5.50
2022-10-09T07:14:12.199Z,6.83
2022-10-09T07:16:41.216Z,6.27
2022-10-09T07:19:11.410Z,5.37
2022-10-09T07:21:43.602Z,5.63
2022-10-09T07:24:11.639Z,6.07
2022-10-09T07:26:41.918Z,8.20
2022-10-09T07:29:12.059Z,5.63
2022-10-09T07:31:39.332Z,6.20
2022-10-09T07:34:07.785Z,5.50
2022-10-09T07:36:36.066Z,6.60
2022-10-09T07:39:04.661Z,5.30
2022-10-09T07:41:31.950Z,7.07
2022-10-09T07:43:59.124Z,7.40
2022-10-09T07:46:32.123Z,7.23
2022-10-09T07:49:00.272Z,6.07
2022-10-09T07:51:29.300Z,6.90
2022-10-09T07:54:00.381Z,5.10
2022-10-09T07:56:30.694Z,6.73
2022-10-09T07:59:02.628Z,6.30
2022-10-09T08:01:31.019Z,6.33
2022-10-09T08:03:58.904Z,6.57
2022-10-09T08:06:26.057Z,7.07
2022-10-09T08:08:54.962Z,5.20
2022-10-09T08:11:23.494Z,6.17
2022-10-09T08:13:51.154Z,9.50
2022-10-09T08:16:20.662Z,7.77
2022-10-09T08:18:48.308Z,8.53
2022-10-09T08:21:18.791Z,5.80
2022-10-09T08:23:47.671Z,6.10
2022-10-09T08:26:21.429Z,6.53
2022-10-09T08:28:53.486Z,6.87
2022-10-09T08:31:20.927Z,6.47
2022-10-09T08:33:48.159Z,6.03
2022-10-09T08:36:15.415Z,6.50
2022-10-09T08:38:47.985Z,6.33
2022-10-09T08:41:26.961Z,7.00
2022-10-09T08:44:03.553Z,8.37
2022-10-09T08:46:57.193Z,6.57
2022-10-09T08:49:50.979Z,6.40
2022-10-09T08:52:39.994Z,6.53
2022-10-09T08:55:16.898Z,5.60
2022-10-09T08:57:46.863Z,6.07
2022-10-09T09:00:19.201Z,7.17
2022-10-09T09:03:24.676Z,6.40
2022-10-09T09:06:00.866Z,5.60
2022-10-09T09:08:52.194Z,6.43
2022-10-09T09:11:36.615Z,5.33
2022-10-09T09:14:24.014Z,6.33
2022-10-09T09:17:23.139Z,6.10
2022-10-09T09:19:54.683Z,5.80
2022-10-09T09:22:24.371Z,6.30
2022-10-09T09:24:59.342Z,5.83
2022-10-09T09:27:34.358Z,5.63
2022-10-09T09:30:16.173Z,5.83
2022-10-09T09:33:12.538Z,6.33
2022-10-09T09:36:14.950Z,6.17
2022-10-09T09:39:12.658Z,6.60
2022-10-09T09:41:29.152Z,6.23
2022-10-09T09:43:56.199Z,6.00
2022-10-09T09:46:30.003Z,4.83
2022-10-09T09:48:57.254Z,6.97
2022-10-09T09:51:32.206Z,6.20
2022-10-09T09:54:07.480Z,5.90
2022-10-09T09:57:11.258Z,6.83
2022-10-09T09:59:37.961Z,7.53
2022-10-09T10:02:13.394Z,7.33
2022-10-09T10:04:50.750Z,6.50
2022-10-09T10:07:36.900Z,7.00
2022-10-09T10:10:17.902Z,8.17
2022-10-09T10:12:56.214Z,7.63
2022-10-09T10:15:30.631Z,7.43
2022-10-09T10:18:04.392Z,7.43
2022-10-09T10:20:33.636Z,7.80
2022-10-09T10:23:01.780Z,8.20
2022-10-09T10:25:34.090Z,7.57
2022-10-09T10:28:07.356Z,9.20
2022-10-09T10:30:36.388Z,8.97
2022-10-09T10:33:13.258Z,7.50
2022-10-09T10:35:43.330Z,7.60
2022-10-09T10:38:24.990Z,8.57
2022-10-09T10:41:17.748Z,9.17
2022-10-09T10:43:59.833Z,8.47
2022-10-09T10:46:26.855Z,8.90
2022-10-09T10:48:53.976Z,7.80
2022-10-09T10:51:26.653Z,6.80
2022-10-09T10:54:35.635Z,8.03
2022-10-09T10:57:44.530Z,7.83
2022-10-09T11:00:12.933Z,6.90
2022-10-09T11:02:52.416Z,5.10
2022-10-09T11:05:43.854Z,6.70
2022-10-09T11:08:51.606Z,7.13
2022-10-09T11:11:25.588Z,5.27
2022-10-09T11:14:07.057Z,7.97
2022-10-09T11:16:33.963Z,7.50
2022-10-09T11:19:03.566Z,7.07
2022-10-09T11:22:02.295Z,6.93
2022-10-09T11:24:55.813Z,6.30
2022-10-09T11:27:53.806Z,7.17
2022-10-09T11:30:20.940Z,6.10
2022-10-09T11:33:14.835Z,5.60
2022-10-09T11:35:56.249Z,6.17
2022-10-09T11:38:35.833Z,5.77
2022-10-09T11:41:07.325Z,6.40
2022-10-09T11:43:56.868Z,6.90
2022-10-09T11:46:35.441Z,7.00
2022-10-09T11:49:12.828Z,8.20
2022-10-09T11:51:51.446Z,7.70
2022-10-09T11:54:21.495Z,7.50
2022-10-09T11:57:05.962Z,8.17
2022-10-09T11:59:41.995Z,8.33
2022-10-09T12:02:30.684Z,7.30
2022-10-09T12:04:57.607Z,6.03
2022-10-09T12:10:27.978Z,5.07
2022-10-09T12:13:06.743Z,6.67
2022-10-09T12:15:54.629Z,6.47
2022-10-09T12:18:27.759Z,5.93
2022-10-09T12:20:56.771Z,5.43
2022-10-09T12:23:27.952Z,5.63
2022-10-09T12:25:56.350Z,4.77
2022-10-09T12:28:39.305Z,5.23
2022-10-09T12:31:20.902Z,4.90
2022-10-09T12:34:00.476Z,5.70
2022-10-09T12:36:30.108Z,5.00
2022-10-09T12:38:57.415Z,5.70
2022-10-09T12:41:29.419Z,5.27
2022-10-09T12:43:57.732Z,5.07
2022-10-09T12:46:37.111Z,4.93
2022-10-09T12:49:14.968Z,4.80
2022-10-09T12:51:42.068Z,4.90
2022-10-09T12:54:10.146Z,5.70
2022-10-09T12:56:38.888Z,6.53
2022-10-09T12:59:07.372Z,11.90
2022-10-09T13:01:35.254Z,5.23
2022-10-09T13:04:04.456Z,5.97
2022-10-09T13:06:46.668Z,5.60
2022-10-09T13:09:23.067Z,5.47
2022-10-09T13:11:59.623Z,5.50
2022-10-09T13:14:42.917Z,5.27
2022-10-09T13:17:36.007Z,6.00
2022-10-09T13:20:25.010Z,5.60
2022-10-09T13:23:02.957Z,5.00
2022-10-09T13:25:40.642Z,7.03
2022-10-09T13:28:07.691Z,5.23
2022-10-09T13:30:34.784Z,6.07
2022-10-09T13:33:01.773Z,4.85
2022-10-09T13:35:28.580Z,4.77
2022-10-09T13:37:55.400Z,4.40
2022-10-09T13:40:22.495Z,4.80
2022-10-09T13:42:55.749Z,4.23
2022-10-09T13:45:22.739Z,5.10
2022-10-09T13:47:49.946Z,5.63
2022-10-09T13:50:18.103Z,4.57
2022-10-09T13:52:45.491Z,4.80
2022-10-09T13:55:12.873Z,6.30
2022-10-09T13:57:39.687Z,5.13
2022-10-09T14:00:07.500Z,6.88
2022-10-09T14:02:34.388Z,6.60
2022-10-09T14:05:01.258Z,5.88
2022-10-09T14:07:28.185Z,5.80
2022-10-09T14:09:55.011Z,5.28
2022-10-09T14:12:21.830Z,4.18
2022-10-09T14:14:48.663Z,4.10
2022-10-09T14:17:15.537Z,4.60
2022-10-09T14:19:42.371Z,4.43
2022-10-09T14:22:09.206Z,3.63
2022-10-09T14:24:36.711Z,3.83
2022-10-09T14:27:03.699Z,3.85
2022-10-09T14:29:30.735Z,4.50
2022-10-09T14:31:57.572Z,4.70
2022-10-09T14:34:24.403Z,4.20
2022-10-09T14:36:51.274Z,5.60
2022-10-09T14:39:18.123Z,4.50
2022-10-09T14:41:45.962Z,5.33
2022-10-09T14:44:13.018Z,5.73
2022-10-09T14:46:39.940Z,4.70
2022-10-09T14:49:08.520Z,5.43
2022-10-09T14:51:37.731Z,4.47
2022-10-09T14:54:06.185Z,4.67
2022-10-09T14:56:33.904Z,4.17
2022-10-09T14:59:01.139Z,4.60
2022-10-09T15:01:29.544Z,3.67
2022-10-09T15:03:56.560Z,4.13
2022-10-09T15:06:28.030Z,3.70
2022-10-09T15:09:03.082Z,3.83
2022-10-09T15:11:33.444Z,4.17
2022-10-09T15:14:00.294Z,5.60
2022-10-09T15:16:27.322Z,5.47
2022-10-09T15:18:55.690Z,5.50
2022-10-09T15:21:28.991Z,5.50
2022-10-09T15:23:57.675Z,4.70
2022-10-09T15:26:26.496Z,4.47
2022-10-09T15:28:53.694Z,4.87
2022-10-09T15:31:31.740Z,5.60
2022-10-09T15:34:01.242Z,4.73
2022-10-09T15:36:29.518Z,4.57
2022-10-09T15:38:57.056Z,4.40
2022-10-09T15:41:26.946Z,5.83
2022-10-09T15:43:56.716Z,5.20
2022-10-09T15:46:24.726Z,6.47
2022-10-09T15:48:52.728Z,6.03
2022-10-09T15:51:20.606Z,7.27
2022-10-09T15:53:50.184Z,7.83
2022-10-09T15:56:20.488Z,10.57
2022-10-09T15:58:47.448Z,9.97
2022-10-09T16:01:16.871Z,9.67
2022-10-09T16:03:47.664Z,18.10
2022-10-09T16:06:17.517Z,27.33
2022-10-09T16:08:46.068Z,23.00
2022-10-09T16:11:14.939Z,27.47
2022-10-09T16:13:44.183Z,19.70
2022-10-09T16:16:14.761Z,18.27
2022-10-09T16:18:41.915Z,18.13
2022-10-09T16:21:13.904Z,20.43
2022-10-09T16:23:44.698Z,17.27
2022-10-09T16:26:15.753Z,17.50
2022-10-09T16:28:43.483Z,18.00
2022-10-09T16:31:28.291Z,15.53
2022-10-09T16:33:55.584Z,15.13
2022-10-09T16:36:23.108Z,16.27
2022-10-09T16:38:50.132Z,18.43
2022-10-09T16:41:20.199Z,19.37
2022-10-09T16:43:49.599Z,16.27
2022-10-09T16:46:23.299Z,16.10
2022-10-09T16:48:51.944Z,18.10
2022-10-09T16:51:22.056Z,17.13
2022-10-09T16:53:53.277Z,17.33
2022-10-09T16:56:23.418Z,15.80
2022-10-09T16:58:55.368Z,20.43
2022-10-09T17:01:22.507Z,23.57
2022-10-09T17:03:49.868Z,21.73
2022-10-09T17:06:23.691Z,22.03
2022-10-09T17:08:54.789Z,17.73
2022-10-09T17:11:22.404Z,19.47
2022-10-09T17:13:49.417Z,17.13
2022-10-09T17:16:21.299Z,17.10
2022-10-09T17:18:49.122Z,18.03
2022-10-09T17:21:18.367Z,17.03
2022-10-09T17:23:46.672Z,17.80
2022-10-09T17:26:18.514Z,18.47
2022-10-09T17:28:46.516Z,20.23
2022-10-09T17:31:16.372Z,19.97
2022-10-09T17:33:46.200Z,19.23
2022-10-09T17:36:16.080Z,18.33
2022-10-09T17:38:43.555Z,19.43
2022-10-09T17:41:12.431Z,19.37
2022-10-09T17:43:39.869Z,19.00
2022-10-09T17:46:07.614Z,19.70
2022-10-09T17:48:35.008Z,19.93
2022-10-09T17:51:06.315Z,19.70
2022-10-09T17:53:33.167Z,21.20
2022-10-09T17:56:03.666Z,23.13
2022-10-09T17:58:30.676Z,24.00
2022-10-09T18:00:57.552Z,25.20
2022-10-09T18:03:24.637Z,23.97
2022-10-09T18:05:51.769Z,25.63
2022-10-09T18:08:19.326Z,24.90
2022-10-09T18:10:46.453Z,25.37
2022-10-09T18:13:13.528Z,24.03
2022-10-09T18:15:44.318Z,24.13
2022-10-09T18:18:11.939Z,29.70
2022-10-09T18:20:40.104Z,26.83
2022-10-09T18:23:08.407Z,65.07
2022-10-09T18:25:40.483Z,82.07
2022-10-09T18:28:07.565Z,65.73
2022-10-09T18:30:34.617Z,48.90
2022-10-09T18:33:01.429Z,40.93
2022-10-09T18:35:30.389Z,36.23
2022-10-09T18:37:57.407Z,33.63
2022-10-09T18:40:24.286Z,29.23
2022-10-09T18:42:52.658Z,28.00
2022-10-09T18:45:19.986Z,29.43
2022-10-09T18:47:46.972Z,27.27
2022-10-09T18:50:15.780Z,28.63
2022-10-09T18:52:43.525Z,29.57
2022-10-09T18:55:14.324Z,28.00
2022-10-09T18:57:42.028Z,27.90
2022-10-09T19:00:09.778Z,27.37
2022-10-09T19:02:36.654Z,29.40
2022-10-09T19:05:04.157Z,34.17
2022-10-09T19:07:31.245Z,31.20
2022-10-09T19:09:59.208Z,30.17
2022-10-09T19:12:26.299Z,30.40
2022-10-09T19:14:53.549Z,28.33
2022-10-09T19:17:20.946Z,28.57
2022-10-09T19:19:47.856Z,28.57
2022-10-09T19:22:18.123Z,28.27
2022-10-09T19:24:46.952Z,29.93
2022-10-09T19:27:15.036Z,30.57
2022-10-09T19:29:41.864Z,32.10
2022-10-09T19:32:08.827Z,32.13
2022-10-09T19:34:35.694Z,32.43
2022-10-09T19:39:33.021Z,31.90
2022-10-09T19:42:00.091Z,31.87
2022-10-09T19:44:27.181Z,32.73
2022-10-09T19:46:55.292Z,33.27
2022-10-09T19:49:22.157Z,32.30
2022-10-09T19:51:49.542Z,34.60
2022-10-09T19:54:17.648Z,31.13
2022-10-09T19:56:44.496Z,35.47
2022-10-09T19:59:11.353Z,30.93
2022-10-09T20:01:40.275Z,30.57
2022-10-09T20:04:09.635Z,31.23
2022-10-09T20:06:41.901Z,30.53
2022-10-09T20:09:10.567Z,29.90
2022-10-09T20:11:37.766Z,28.30
2022-10-09T20:14:05.292Z,29.13
2022-10-09T20:16:33.584Z,30.13
2022-10-09T20:19:01.480Z,27.03
2022-10-09T20:21:30.647Z,26.70
2022-10-09T20:24:00.350Z,26.17
2022-10-09T20:26:28.227Z,26.10
2022-10-09T20:28:55.461Z,26.67
2022-10-09T20:31:24.264Z,27.30
2022-10-09T20:33:51.828Z,28.43
2022-10-09T20:36:20.011Z,27.40
2022-10-09T20:38:46.940Z,26.13
2022-10-09T20:41:15.109Z,26.30
2022-10-09T20:43:41.990Z,25.63
2022-10-09T20:46:14.663Z,26.70
2022-10-09T20:48:43.112Z,26.60
2022-10-09T20:51:10.234Z,26.27
2022-10-09T20:53:37.094Z,26.77
2022-10-09T20:56:07.644Z,29.17
2022-10-09T20:58:35.399Z,25.60
2022-10-09T21:01:07.584Z,25.60
2022-10-09T21:03:35.461Z,26.20
2022-10-09T21:06:11.428Z,24.40
2022-10-09T21:08:38.964Z,26.90
2022-10-09T21:11:09.205Z,26.17
2022-10-09T21:13:37.278Z,26.33
2022-10-09T21:16:09.534Z,26.37
2022-10-09T21:18:37.508Z,24.93
2022-10-09T21:21:14.219Z,26.87
2022-10-09T21:23:42.725Z,25.13
2022-10-09T21:26:14.314Z,27.23
2022-10-09T21:28:42.285Z,26.77
2022-10-09T21:31:15.894Z,24.37
2022-10-09T21:33:43.060Z,26.33
2022-10-09T21:36:29.570Z,26.27
2022-10-09T21:38:56.509Z,26.90
2022-10-09T21:41:23.819Z,26.17
2022-10-09T21:43:50.670Z,29.47
2022-10-09T21:46:17.501Z,31.70
2022-10-09T21:48:44.344Z,29.20
2022-10-09T21:51:11.166Z,30.53
2022-10-09T21:53:38.011Z,28.13
2022-10-09T21:56:06.193Z,25.83
2022-10-09T21:58:33.383Z,25.63
2022-10-09T22:01:01.920Z,27.63
2022-10-09T22:03:32.392Z,26.43
2022-10-09T22:05:59.467Z,27.13
2022-10-09T22:08:28.050Z,27.00
2022-10-09T22:10:54.878Z,25.50
2022-10-09T22:13:22.568Z,28.43
2022-10-09T22:15:51.719Z,26.03
2022-10-09T22:18:19.869Z,23.90
2022-10-09T22:20:49.488Z,23.30
2022-10-09T22:23:18.756Z,24.67
2022-10-09T22:25:55.702Z,23.73
2022-10-09T22:28:22.917Z,24.27
2022-10-09T22:31:02.452Z,24.53
2022-10-09T22:33:31.141Z,22.53
2022-10-09T22:36:12.785Z,23.40
2022-10-09T22:38:41.060Z,22.63
2022-10-09T22:41:17.820Z,21.90
2022-10-09T22:43:46.468Z,23.30
2022-10-09T22:46:21.749Z,23.10
2022-10-09T22:48:49.983Z,22.17
2022-10-09T22:51:18.952Z,20.70
2022-10-09T22:53:46.810Z,21.20
2022-10-09T22:56:19.585Z,21.63
2022-10-09T22:58:47.553Z,21.43
2022-10-09T23:01:23.451Z,21.07
2022-10-09T23:03:51.480Z,21.60
2022-10-09T23:06:20.199Z,21.97
2022-10-09T23:08:49.000Z,23.17
2022-10-09T23:11:18.011Z,21.63
2022-10-09T23:13:45.481Z,22.77
2022-10-09T23:16:14.309Z,21.87
2022-10-09T23:18:42.471Z,20.30
2022-10-09T23:21:15.762Z,19.60
2022-10-09T23:23:44.138Z,20.40
2022-10-09T23:26:31.990Z,21.17
2022-10-09T23:29:01.977Z,20.50
2022-10-09T23:31:29.690Z,19.80
2022-10-09T23:33:58.085Z,19.27
2022-10-09T23:36:27.188Z,20.30
2022-10-09T23:38:54.483Z,20.00
2022-10-09T23:41:24.109Z,20.10
2022-10-09T23:43:51.577Z,18.60
2022-10-09T23:46:22.217Z,19.90
2022-10-09T23:48:50.454Z,20.63
2022-10-09T23:51:19.429Z,18.53
2022-10-09T23:53:47.455Z,20.33
2022-10-09T23:56:21.497Z,18.67
2022-10-09T23:58:49.511Z,19.77
